createdAt,value
2019-01-19T00:01:19.354Z,2.83
2019-01-19T00:04:04.011Z,2.72
2019-01-19T00:06:31.033Z,2.64
2019-01-19T00:08:57.994Z,2.63
2019-01-19T00:11:28.642Z,2.52
2019-01-19T00:13:56.385Z,2.43
2019-01-19T00:16:26.176Z,2.31
2019-01-19T00:18:58.858Z,2.27
2019-01-19T00:21:25.831Z,2.31
2019-01-19T00:23:53.586Z,2.31
2019-01-19T00:26:23.256Z,2.28
2019-01-19T00:28:51.058Z,2.23
2019-01-19T00:31:22.202Z,2.28
2019-01-19T00:34:04.035Z,2.21
2019-01-19T00:36:31.658Z,2.13
2019-01-19T00:39:19.470Z,2.05
2019-01-19T00:42:02.197Z,1.92
2019-01-19T00:44:44.030Z,1.88
2019-01-19T00:47:14.903Z,1.87
2019-01-19T00:49:41.841Z,1.88
2019-01-19T00:52:28.662Z,1.94
2019-01-19T00:54:56.524Z,1.92
2019-01-19T00:57:38.351Z,1.97
2019-01-19T01:00:10.128Z,2.02
2019-01-19T01:02:38.435Z,2.06
2019-01-19T01:05:25.266Z,2.03
2019-01-19T01:07:51.088Z,2.01
2019-01-19T01:10:23.017Z,1.92
2019-01-19T01:13:03.126Z,1.84
2019-01-19T01:15:39.260Z,1.82
2019-01-19T01:18:10.219Z,1.87
2019-01-19T01:20:40.429Z,1.92
2019-01-19T01:26:37.387Z,2.32
2019-01-19T01:29:12.528Z,2.24
2019-01-19T01:31:40.226Z,2.14
2019-01-19T01:34:23.351Z,2.00
2019-01-19T01:37:05.170Z,1.93
2019-01-19T01:39:48.907Z,1.92
2019-01-19T01:42:20.811Z,1.86
2019-01-19T01:44:54.707Z,1.65
2019-01-19T01:47:27.473Z,1.58
2019-01-19T01:49:58.153Z,1.61
2019-01-19T01:52:27.761Z,1.54
2019-01-19T01:54:58.858Z,1.51
2019-01-19T01:57:25.801Z,1.56
2019-01-19T02:00:12.626Z,1.61
2019-01-19T02:02:41.477Z,1.60
2019-01-19T02:05:24.246Z,1.58
2019-01-19T02:07:55.321Z,1.54
2019-01-19T02:10:38.945Z,1.48
2019-01-19T02:13:14.591Z,1.44
2019-01-19T02:15:55.274Z,1.36
2019-01-19T02:18:37.111Z,1.35
2019-01-19T02:21:04.094Z,1.38
2019-01-19T02:23:46.695Z,1.37
2019-01-19T02:26:16.403Z,1.36
2019-01-19T02:28:48.999Z,1.38
2019-01-19T02:31:31.919Z,1.41
2019-01-19T02:34:05.675Z,1.33
2019-01-19T02:39:47.531Z,1.76
2019-01-19T02:42:30.319Z,1.57
2019-01-19T02:45:02.111Z,1.49
2019-01-19T02:47:44.938Z,1.50
2019-01-19T02:50:12.683Z,1.54
2019-01-19T02:52:42.276Z,1.52
2019-01-19T02:55:13.009Z,1.48
2019-01-19T02:57:42.761Z,1.46
2019-01-19T03:00:14.475Z,1.41
2019-01-19T03:02:45.355Z,1.41
2019-01-19T03:05:23.013Z,1.40
2019-01-19T03:07:50.785Z,1.40
2019-01-19T03:10:35.122Z,1.37
2019-01-19T03:13:14.830Z,1.31
2019-01-19T03:15:58.618Z,1.25
2019-01-19T03:18:29.527Z,1.25
2019-01-19T03:21:08.155Z,1.28
2019-01-19T03:23:45.619Z,1.30
2019-01-19T03:26:12.563Z,1.28
2019-01-19T03:28:41.322Z,1.29
2019-01-19T03:31:20.069Z,1.32
2019-01-19T03:33:54.896Z,1.29
2019-01-19T03:36:23.747Z,1.22
2019-01-19T03:38:50.711Z,1.20
2019-01-19T03:41:32.521Z,1.15
2019-01-19T03:44:04.147Z,1.13
2019-01-19T03:46:51.209Z,1.09
2019-01-19T03:49:18.920Z,1.05
2019-01-19T03:51:51.512Z,1.08
2019-01-19T03:54:21.474Z,1.10
2019-01-19T03:57:06.108Z,1.09
2019-01-19T03:59:45.103Z,0.99
2019-01-19T04:02:19.958Z,1.05
2019-01-19T04:04:49.727Z,0.99
2019-01-19T04:07:18.366Z,0.99
2019-01-19T04:09:48.500Z,0.98
2019-01-19T04:12:26.530Z,1.02
2019-01-19T04:15:12.538Z,1.11
2019-01-19T04:17:53.647Z,1.20
2019-01-19T04:23:19.622Z,1.64
2019-01-19T04:25:47.028Z,1.48
2019-01-19T04:28:14.443Z,1.48
2019-01-19T04:30:41.864Z,1.41
2019-01-19T04:33:08.813Z,1.40
2019-01-19T04:35:35.759Z,1.31
2019-01-19T04:38:02.730Z,1.23
2019-01-19T04:40:29.763Z,1.22
2019-01-19T04:42:56.698Z,1.24
2019-01-19T04:45:23.648Z,1.23
2019-01-19T04:47:50.603Z,1.30
2019-01-19T04:50:17.539Z,1.36
2019-01-19T04:52:44.486Z,1.41
2019-01-19T04:55:11.478Z,1.42
2019-01-19T04:57:38.453Z,1.39
2019-01-19T05:00:09.292Z,1.39
2019-01-19T05:02:36.278Z,1.39
2019-01-19T05:05:03.221Z,1.41
2019-01-19T05:07:30.189Z,1.46
2019-01-19T05:09:57.589Z,1.54
2019-01-19T05:12:24.519Z,1.52
2019-01-19T05:14:51.471Z,1.50
2019-01-19T05:17:18.418Z,1.50
2019-01-19T05:19:45.361Z,1.57
2019-01-19T05:22:12.316Z,1.57
2019-01-19T05:24:39.253Z,1.59
2019-01-19T05:27:06.196Z,1.58
2019-01-19T05:29:33.155Z,1.60
2019-01-19T05:32:00.143Z,1.58
2019-01-19T05:34:27.078Z,1.60
2019-01-19T05:36:54.071Z,1.67
2019-01-19T05:39:21.142Z,1.68
2019-01-19T05:41:48.098Z,1.70
2019-01-19T05:44:15.030Z,1.58
2019-01-19T05:46:41.970Z,1.56
2019-01-19T05:49:08.916Z,1.60
2019-01-19T05:51:35.871Z,1.64
2019-01-19T05:54:02.812Z,1.66
2019-01-19T05:56:29.773Z,1.69
2019-01-19T05:58:56.715Z,1.70
2019-01-19T06:01:23.673Z,1.67
2019-01-19T06:03:50.604Z,1.66
2019-01-19T06:06:17.566Z,1.68
2019-01-19T06:08:44.498Z,1.65
2019-01-19T06:11:12.051Z,1.58
2019-01-19T06:13:39.082Z,1.55
2019-01-19T06:16:06.026Z,1.61
2019-01-19T06:18:32.962Z,1.62
2019-01-19T06:20:59.918Z,1.58
2019-01-19T06:23:26.927Z,1.64
2019-01-19T06:25:53.881Z,1.65
2019-01-19T06:28:20.822Z,1.66
2019-01-19T06:30:47.766Z,1.67
2019-01-19T06:33:14.710Z,1.73
2019-01-19T06:35:41.654Z,1.72
2019-01-19T06:38:08.654Z,1.61
2019-01-19T06:40:35.620Z,1.39
2019-01-19T06:43:02.556Z,1.31
2019-01-19T06:45:29.504Z,1.24
2019-01-19T06:47:56.438Z,1.29
2019-01-19T06:50:23.480Z,1.35
2019-01-19T06:52:50.425Z,1.39
2019-01-19T06:55:18.195Z,1.38
2019-01-19T06:57:45.143Z,1.29
2019-01-19T07:00:12.117Z,1.36
2019-01-19T07:02:39.050Z,1.44
2019-01-19T07:05:06.012Z,1.52
2019-01-19T07:07:32.959Z,1.59
2019-01-19T07:10:00.177Z,1.62
2019-01-19T07:12:27.138Z,1.58
2019-01-19T07:14:54.077Z,1.66
2019-01-19T07:17:21.021Z,1.70
2019-01-19T07:19:47.987Z,1.70
2019-01-19T07:22:14.984Z,1.64
2019-01-19T07:24:42.382Z,1.64
2019-01-19T07:27:09.342Z,1.69
2019-01-19T07:29:36.310Z,1.72
2019-01-19T07:32:03.701Z,1.72
2019-01-19T07:34:30.646Z,1.72
2019-01-19T07:36:57.591Z,1.70
2019-01-19T07:39:24.595Z,1.67
2019-01-19T07:41:51.522Z,1.66
2019-01-19T07:44:18.486Z,1.69
2019-01-19T07:46:45.520Z,1.73
2019-01-19T07:49:12.482Z,1.62
2019-01-19T07:51:39.518Z,1.58
2019-01-19T07:54:06.479Z,1.69
2019-01-19T07:56:33.895Z,1.82
2019-01-19T07:59:00.840Z,1.93
2019-01-19T08:01:28.259Z,2.01
2019-01-19T08:03:55.174Z,2.08
2019-01-19T08:06:22.200Z,2.12
2019-01-19T08:08:49.587Z,2.23
2019-01-19T08:11:17.048Z,2.44
2019-01-19T08:13:45.303Z,2.56
2019-01-19T08:16:13.668Z,2.72
2019-01-19T08:18:41.098Z,3.10
2019-01-19T08:21:08.638Z,3.96
2019-01-19T08:23:35.685Z,4.76
2019-01-19T08:26:02.658Z,5.43
2019-01-19T08:28:29.605Z,5.79
2019-01-19T08:30:56.552Z,6.21
2019-01-19T08:33:23.595Z,6.81
2019-01-19T08:35:50.623Z,7.59
2019-01-19T08:38:17.645Z,8.29
2019-01-19T08:40:44.570Z,8.86
2019-01-19T08:43:11.886Z,8.88
2019-01-19T08:45:38.918Z,9.46
2019-01-19T08:48:06.333Z,10.29
2019-01-19T08:50:34.020Z,10.46
2019-01-19T08:53:01.493Z,10.72
2019-01-19T08:55:28.435Z,11.10
2019-01-19T08:57:55.415Z,11.25
2019-01-19T09:00:22.358Z,11.34
2019-01-19T09:02:49.347Z,11.25
2019-01-19T09:05:16.315Z,11.55
2019-01-19T09:07:43.278Z,11.31
2019-01-19T09:10:13.006Z,11.42
2019-01-19T09:12:39.976Z,11.72
2019-01-19T09:15:06.934Z,11.49
2019-01-19T09:17:33.946Z,11.80
2019-01-19T09:20:00.913Z,12.32
2019-01-19T09:22:27.860Z,11.97
2019-01-19T09:24:54.821Z,11.73
2019-01-19T09:27:21.784Z,11.78
2019-01-19T09:29:48.738Z,11.79
2019-01-19T09:32:15.728Z,12.25
2019-01-19T09:34:42.721Z,12.43
2019-01-19T09:37:09.786Z,12.44
2019-01-19T09:39:36.780Z,12.43
2019-01-19T09:42:03.750Z,12.23
2019-01-19T09:44:31.059Z,11.99
2019-01-19T09:46:58.035Z,12.04
2019-01-19T09:49:25.051Z,12.46
2019-01-19T09:51:52.291Z,12.59
2019-01-19T09:54:19.264Z,12.80
2019-01-19T09:56:46.218Z,13.43
2019-01-19T09:59:13.169Z,13.19
2019-01-19T10:01:40.126Z,12.86
2019-01-19T10:04:07.286Z,13.16
2019-01-19T10:06:34.249Z,12.84
2019-01-19T10:09:01.220Z,12.43
2019-01-19T10:11:28.153Z,12.58
2019-01-19T10:13:55.114Z,13.21
2019-01-19T10:16:22.549Z,13.68
2019-01-19T10:18:49.566Z,13.69
2019-01-19T10:21:16.544Z,14.11
2019-01-19T10:23:43.521Z,13.66
2019-01-19T10:26:10.495Z,13.29
2019-01-19T10:28:37.448Z,13.49
2019-01-19T10:31:04.415Z,13.71
2019-01-19T10:33:31.366Z,14.05
2019-01-19T10:35:58.302Z,13.94
2019-01-19T10:38:25.269Z,13.84
2019-01-19T10:40:52.470Z,13.50
2019-01-19T10:43:19.446Z,13.56
2019-01-19T10:45:46.391Z,13.42
2019-01-19T10:48:13.364Z,13.26
2019-01-19T10:50:40.295Z,12.90
2019-01-19T10:53:07.254Z,12.52
2019-01-19T10:55:34.208Z,12.03
2019-01-19T10:58:01.337Z,12.04
2019-01-19T11:00:28.300Z,12.16
2019-01-19T11:02:55.280Z,11.84
2019-01-19T11:05:22.240Z,12.37
2019-01-19T11:07:49.196Z,12.85
2019-01-19T11:10:16.260Z,13.35
2019-01-19T11:12:43.258Z,14.04
2019-01-19T11:15:10.211Z,14.39
2019-01-19T11:17:37.261Z,14.12
2019-01-19T11:20:04.927Z,14.71
2019-01-19T11:22:31.920Z,14.61
2019-01-19T11:24:58.858Z,15.15
2019-01-19T11:27:25.817Z,15.74
2019-01-19T11:29:52.768Z,15.98
2019-01-19T11:32:19.772Z,16.37
2019-01-19T11:34:46.752Z,15.92
2019-01-19T11:37:13.706Z,15.51
2019-01-19T11:39:40.708Z,15.74
2019-01-19T11:42:07.746Z,16.08
2019-01-19T11:44:34.826Z,16.34
2019-01-19T11:47:01.825Z,16.82
2019-01-19T11:49:28.766Z,17.20
2019-01-19T11:51:55.721Z,17.85
2019-01-19T11:54:22.700Z,17.73
2019-01-19T11:56:49.645Z,17.39
2019-01-19T11:59:16.690Z,17.13
2019-01-19T12:01:43.702Z,17.11
2019-01-19T12:04:10.638Z,17.16
2019-01-19T12:06:38.154Z,17.54
2019-01-19T12:09:05.117Z,17.59
2019-01-19T12:11:32.577Z,17.69
2019-01-19T12:14:00.570Z,18.01
2019-01-19T12:16:26.870Z,18.22
2019-01-19T12:18:53.954Z,18.42
2019-01-19T12:21:20.961Z,18.77
2019-01-19T12:23:48.477Z,19.48
2019-01-19T12:26:15.988Z,19.99
2019-01-19T12:28:42.934Z,19.70
2019-01-19T12:31:09.895Z,19.36
2019-01-19T12:33:36.867Z,19.47
2019-01-19T12:36:03.820Z,19.61
2019-01-19T12:38:30.900Z,19.59
2019-01-19T12:40:57.956Z,19.40
2019-01-19T12:43:24.900Z,19.35
2019-01-19T12:45:51.862Z,18.74
2019-01-19T12:48:18.835Z,18.15
2019-01-19T12:50:45.935Z,18.74
2019-01-19T12:53:12.892Z,19.75
2019-01-19T12:55:40.681Z,20.59
2019-01-19T12:58:08.925Z,21.01
2019-01-19T13:00:35.887Z,20.09
2019-01-19T13:03:02.838Z,18.68
2019-01-19T13:05:29.826Z,18.26
2019-01-19T13:07:56.808Z,19.36
2019-01-19T13:10:32.522Z,20.23
2019-01-19T13:12:59.516Z,20.87
2019-01-19T13:15:27.388Z,21.22
2019-01-19T13:17:55.139Z,20.32
2019-01-19T13:20:23.875Z,20.91
2019-01-19T13:22:50.883Z,22.03
2019-01-19T13:25:18.399Z,22.82
2019-01-19T13:27:48.453Z,22.78
2019-01-19T13:30:17.215Z,23.36
2019-01-19T13:32:47.106Z,23.86
2019-01-19T13:35:30.011Z,23.69
2019-01-19T13:41:06.567Z,22.61
2019-01-19T13:43:33.534Z,22.59
2019-01-19T13:46:21.476Z,23.35
2019-01-19T13:48:47.416Z,23.79
2019-01-19T13:51:18.588Z,23.65
2019-01-19T13:54:01.474Z,23.70
2019-01-19T13:56:40.204Z,22.90
2019-01-19T13:59:24.027Z,22.23
2019-01-19T14:01:54.040Z,21.79
2019-01-19T14:04:30.943Z,20.36
2019-01-19T14:06:58.646Z,17.61
2019-01-19T14:09:35.556Z,17.19
2019-01-19T14:12:02.590Z,19.13
2019-01-19T14:14:35.433Z,20.30
2019-01-19T14:17:03.221Z,20.41
2019-01-19T14:19:33.054Z,19.38
2019-01-19T14:22:17.496Z,17.10
2019-01-19T14:24:45.076Z,15.79
2019-01-19T14:27:12.154Z,16.33
2019-01-19T14:29:54.061Z,16.57
2019-01-19T14:32:35.923Z,17.15
2019-01-19T14:35:04.754Z,19.70
2019-01-19T14:37:47.224Z,20.57
2019-01-19T14:40:15.950Z,21.73
2019-01-19T14:42:47.132Z,18.42
2019-01-19T14:45:25.295Z,16.76
2019-01-19T14:47:54.106Z,16.56
2019-01-19T14:50:22.941Z,15.12
2019-01-19T14:52:50.889Z,13.39
2019-01-19T14:55:24.407Z,11.86
2019-01-19T15:00:49.714Z,10.82
2019-01-19T15:03:35.122Z,10.12
2019-01-19T15:06:06.799Z,9.89
2019-01-19T15:11:53.642Z,9.59
2019-01-19T15:14:35.483Z,9.39
2019-01-19T15:17:08.149Z,8.82
2019-01-19T15:22:45.779Z,8.92
2019-01-19T15:25:31.634Z,8.63
2019-01-19T15:27:58.622Z,8.53
2019-01-19T15:30:25.573Z,8.39
2019-01-19T15:32:58.546Z,8.22
2019-01-19T15:35:31.586Z,8.24
2019-01-19T15:38:00.833Z,8.05
2019-01-19T15:40:30.692Z,7.79
2019-01-19T15:43:07.583Z,7.60
2019-01-19T15:45:41.361Z,7.44
2019-01-19T15:48:21.502Z,7.26
2019-01-19T15:50:54.242Z,6.98
2019-01-19T15:53:30.955Z,6.83
2019-01-19T15:56:01.874Z,6.74
2019-01-19T15:58:29.024Z,6.65
2019-01-19T16:00:59.973Z,6.61
2019-01-19T16:03:29.675Z,6.68
2019-01-19T16:06:06.564Z,6.69
2019-01-19T16:08:37.391Z,6.60
2019-01-19T16:11:04.345Z,6.59
2019-01-19T16:13:42.682Z,6.54
2019-01-19T16:16:14.262Z,6.50
2019-01-19T16:18:56.874Z,6.40
2019-01-19T16:21:35.764Z,6.40
2019-01-19T16:24:10.529Z,6.44
2019-01-19T16:26:56.184Z,6.47
2019-01-19T16:29:38.801Z,6.34
2019-01-19T16:32:24.490Z,6.30
2019-01-19T16:35:06.559Z,6.24
2019-01-19T16:37:40.182Z,6.19
2019-01-19T16:40:13.095Z,6.18
2019-01-19T16:42:42.698Z,6.17
2019-01-19T16:45:14.678Z,6.10
2019-01-19T16:47:56.596Z,5.99
2019-01-19T16:50:42.334Z,5.89
2019-01-19T16:53:13.114Z,5.87
2019-01-19T16:55:42.831Z,5.91
2019-01-19T16:58:12.689Z,5.89
2019-01-19T17:00:57.568Z,5.89
2019-01-19T17:03:25.751Z,5.90
2019-01-19T17:09:06.541Z,6.14
2019-01-19T17:11:35.391Z,5.99
2019-01-19T17:14:02.475Z,5.76
2019-01-19T17:16:38.468Z,5.60
2019-01-19T17:19:18.336Z,5.48
2019-01-19T17:21:47.373Z,5.43
2019-01-19T17:24:16.363Z,5.41
2019-01-19T17:26:44.865Z,5.43
2019-01-19T17:29:27.930Z,5.47
2019-01-19T17:31:57.700Z,5.46
2019-01-19T17:34:29.502Z,5.47
2019-01-19T17:36:56.466Z,5.42
2019-01-19T17:39:27.389Z,5.25
2019-01-19T17:42:10.131Z,5.24
2019-01-19T17:44:37.114Z,5.17
2019-01-19T17:47:04.128Z,5.18
2019-01-19T17:49:31.080Z,5.22
2019-01-19T17:52:16.893Z,5.26
2019-01-19T17:54:49.627Z,5.26
2019-01-19T17:57:17.479Z,5.24
2019-01-19T17:59:48.331Z,5.29
2019-01-19T18:02:20.094Z,5.24
2019-01-19T18:04:47.866Z,5.06
2019-01-19T18:07:16.700Z,5.01
2019-01-19T18:09:49.408Z,4.94
2019-01-19T18:12:21.209Z,4.88
2019-01-19T18:14:50.045Z,4.80
2019-01-19T18:17:19.078Z,4.80
2019-01-19T18:19:55.988Z,4.81
2019-01-19T18:22:41.243Z,4.79
2019-01-19T18:25:07.547Z,4.76
2019-01-19T18:27:40.309Z,4.69
2019-01-19T18:30:11.368Z,4.67
2019-01-19T18:32:39.123Z,4.70
2019-01-19T18:35:06.737Z,4.70
2019-01-19T18:37:40.531Z,4.76
2019-01-19T18:40:08.442Z,4.76
2019-01-19T18:42:35.588Z,4.71
2019-01-19T18:45:19.453Z,4.71
2019-01-19T18:47:48.017Z,4.69
2019-01-19T18:50:20.840Z,4.67
2019-01-19T18:52:58.611Z,4.68
2019-01-19T18:55:25.564Z,4.64
2019-01-19T18:57:53.079Z,4.61
2019-01-19T19:00:34.913Z,4.54
2019-01-19T19:03:03.602Z,4.49
2019-01-19T19:05:46.253Z,4.47
2019-01-19T19:08:28.089Z,4.48
2019-01-19T19:11:14.946Z,4.51
2019-01-19T19:13:43.678Z,4.48
2019-01-19T19:16:11.413Z,4.41
2019-01-19T19:18:56.117Z,4.33
2019-01-19T19:21:26.134Z,4.31
2019-01-19T19:23:54.001Z,4.34
2019-01-19T19:26:20.950Z,4.35
2019-01-19T19:28:47.944Z,4.40
2019-01-19T19:31:29.797Z,4.38
2019-01-19T19:34:13.137Z,4.32
2019-01-19T19:36:56.676Z,4.29
2019-01-19T19:39:43.459Z,4.28
2019-01-19T19:42:11.373Z,4.31
2019-01-19T19:44:39.011Z,4.29
2019-01-19T19:47:11.705Z,4.32
2019-01-19T19:49:42.473Z,4.35
2019-01-19T19:52:09.423Z,4.40
2019-01-19T19:54:36.410Z,4.39
2019-01-19T19:57:03.354Z,4.40
2019-01-19T19:59:30.332Z,4.47
2019-01-19T20:01:57.522Z,4.46
2019-01-19T20:04:24.446Z,4.45
2019-01-19T20:06:51.478Z,4.40
2019-01-19T20:09:18.492Z,4.22
2019-01-19T20:11:45.522Z,3.96
2019-01-19T20:14:12.467Z,3.92
2019-01-19T20:16:39.410Z,3.94
2019-01-19T20:19:06.348Z,3.94
2019-01-19T20:21:33.287Z,4.04
2019-01-19T20:24:00.225Z,4.05
2019-01-19T20:26:27.158Z,4.08
2019-01-19T20:28:54.104Z,4.06
2019-01-19T20:31:21.046Z,4.00
2019-01-19T20:33:47.991Z,3.85
2019-01-19T20:36:14.954Z,3.84
2019-01-19T20:38:41.913Z,3.89
2019-01-19T20:41:08.876Z,3.75
2019-01-19T20:43:36.577Z,3.66
2019-01-19T20:46:04.259Z,3.71
2019-01-19T20:48:31.199Z,3.60
2019-01-19T20:50:58.224Z,3.53
2019-01-19T20:53:25.218Z,3.44
2019-01-19T20:55:52.220Z,3.47
2019-01-19T20:58:19.188Z,3.52
2019-01-19T21:00:46.151Z,3.49
2019-01-19T21:03:13.086Z,3.40
2019-01-19T21:05:40.038Z,3.30
2019-01-19T21:08:06.982Z,3.35
2019-01-19T21:10:34.009Z,3.30
2019-01-19T21:13:01.146Z,3.24
2019-01-19T21:15:29.259Z,3.19
2019-01-19T21:17:56.500Z,3.15
2019-01-19T21:20:24.889Z,3.14
2019-01-19T21:22:51.860Z,3.09
2019-01-19T21:25:18.951Z,3.03
2019-01-19T21:27:45.916Z,3.03
2019-01-19T21:30:12.927Z,2.99
2019-01-19T21:32:39.973Z,2.98
2019-01-19T21:35:06.919Z,3.02
2019-01-19T21:37:33.897Z,3.04
2019-01-19T21:40:00.847Z,3.01
2019-01-19T21:42:27.840Z,2.98
2019-01-19T21:44:54.789Z,2.95
2019-01-19T21:47:21.778Z,2.91
2019-01-19T21:49:48.732Z,2.92
2019-01-19T21:52:15.659Z,2.92
2019-01-19T21:54:42.646Z,2.91
2019-01-19T21:57:09.650Z,2.92
2019-01-19T21:59:36.595Z,2.84
2019-01-19T22:02:03.576Z,2.84
2019-01-19T22:04:30.954Z,2.75
2019-01-19T22:06:57.963Z,2.77
2019-01-19T22:09:24.975Z,2.69
2019-01-19T22:11:51.912Z,2.64
2019-01-19T22:14:18.961Z,2.54
2019-01-19T22:16:45.909Z,2.58
2019-01-19T22:19:12.873Z,2.59
2019-01-19T22:21:39.890Z,2.62
2019-01-19T22:24:06.850Z,2.62
2019-01-19T22:26:33.865Z,2.66
2019-01-19T22:29:00.985Z,2.65
2019-01-19T22:31:27.916Z,2.73
2019-01-19T22:33:54.872Z,2.70
2019-01-19T22:36:21.878Z,2.71
2019-01-19T22:38:48.827Z,2.65
2019-01-19T22:41:15.779Z,2.63
2019-01-19T22:43:42.727Z,2.63
2019-01-19T22:46:09.748Z,2.65
2019-01-19T22:48:36.711Z,2.64
2019-01-19T22:51:11.020Z,2.66
2019-01-19T22:53:30.595Z,2.67
2019-01-19T22:55:57.543Z,2.70
2019-01-19T22:58:24.501Z,2.76
2019-01-19T23:00:54.939Z,2.79
2019-01-19T23:03:21.955Z,2.86
2019-01-19T23:05:48.883Z,2.89
2019-01-19T23:08:15.849Z,2.86
2019-01-19T23:10:42.831Z,2.89
2019-01-19T23:13:09.793Z,2.93
2019-01-19T23:15:36.738Z,3.01
2019-01-19T23:18:03.687Z,3.05
2019-01-19T23:20:30.631Z,2.98
2019-01-19T23:22:57.576Z,2.98
2019-01-19T23:25:24.533Z,2.96
2019-01-19T23:27:51.496Z,2.92
2019-01-19T23:30:18.445Z,2.90
2019-01-19T23:32:45.425Z,2.96
2019-01-19T23:35:12.401Z,2.96
2019-01-19T23:37:39.390Z,2.89
2019-01-19T23:40:06.391Z,2.84
2019-01-19T23:42:33.330Z,2.85
2019-01-19T23:45:00.328Z,2.89
2019-01-19T23:47:27.402Z,2.94
2019-01-19T23:49:54.341Z,3.03
2019-01-19T23:52:21.313Z,3.08
2019-01-19T23:54:48.975Z,3.02
2019-01-19T23:57:15.945Z,2.97
2019-01-19T23:59:42.943Z,3.01
